Time;durP1;ratioP1;P1;durP2;ratioP2;P2;SDS_P1;SDS_P2;PMS_P1;PMS_P2;Temp;Humidity;BMP_temperature;BMP_pressure;BME280_temperature;BME280_humidity;BME280_pressure;Samples;Min_cycle;Max_cycle;Signal;HPM_P1;HPM_P2
2022/04/19 00:01:48;;;;;;;52.58;28.75;;;;;;;;;;5053865;28;20044;-71
2022/04/19 00:04:16;;;;;;;48.90;27.63;;;;;;;;;;5058747;28;20510;-71
2022/04/19 00:06:44;;;;;;;55.65;28.30;;;;;;;;;;5056739;28;20080;-71
2022/04/19 00:09:10;;;;;;;50.60;28.73;;;;;;;;;;5054752;28;20084;-71
2022/04/19 00:11:36;;;;;;;56.38;27.38;;;;;;;;;;5052722;28;20147;-71
2022/04/19 00:14:02;;;;;;;50.92;27.77;;;9.90;96.40;;;;;;5055443;28;20033;-71
2022/04/19 00:16:28;;;;;;;48.30;27.15;;;10.00;96.50;;;;;;5052206;28;20057;-71
2022/04/19 00:18:54;;;;;;;49.88;26.65;;;;;;;;;;5067635;28;20109;-71
2022/04/19 00:21:20;;;;;;;55.70;26.13;;;;;;;;;;5069554;28;20044;-71
2022/04/19 00:23:47;;;;;;;47.42;26.83;;;10.70;96.90;;;;;;5069614;28;20044;-71
2022/04/19 00:26:13;;;;;;;46.20;25.45;;;;;;;;;;5055246;28;20049;-71
2022/04/19 00:28:41;;;;;;;50.78;26.38;;;;;;;;;;5063313;28;20452;-71
2022/04/19 00:31:07;;;;;;;49.20;27.73;;;;;;;;;;5066493;28;20127;-71
2022/04/19 00:33:33;;;;;;;52.15;27.38;;;11.60;97.40;;;;;;5070239;28;20028;-71
2022/04/19 00:35:59;;;;;;;54.08;27.05;;;;;;;;;;5066448;28;20041;-71
2022/04/19 00:38:25;;;;;;;46.83;25.55;;;;;;;;;;5068902;28;20377;-71
2022/04/19 00:40:52;;;;;;;44.40;25.55;;;;;;;;;;5059910;28;20037;-71
2022/04/19 00:43:18;;;;;;;55.13;26.52;;;;;;;;;;5053049;28;20028;-71
2022/04/19 00:45:44;;;;;;;49.08;25.77;;;;;;;;;;5054803;28;20049;-71
2022/04/19 00:48:10;;;;;;;48.08;26.42;;;;;;;;;;5058354;28;20042;-71
2022/04/19 00:50:37;;;;;;;47.10;25.48;;;;;;;;;;5061836;28;20044;-71
2022/04/19 00:53:03;;;;;;;45.80;25.35;;;10.60;93.90;;;;;;5052140;28;20086;-71
2022/04/19 00:55:31;;;;;;;54.05;26.25;;;10.20;93.60;;;;;;5060551;28;20040;-71
2022/04/19 00:57:57;;;;;;;49.33;26.20;;;;;;;;;;5068921;28;20040;-70
2022/04/19 01:00:24;;;;;;;52.70;27.52;;;;;;;;;;5066859;28;20095;-71
2022/04/19 01:02:50;;;;;;;46.80;25.80;;;;;;;;;;5069748;28;20041;-70
2022/04/19 01:05:16;;;;;;;46.63;25.65;;;;;;;;;;5057306;28;20048;-70
2022/04/19 01:07:45;;;;;;;49.88;25.33;;;;;;;;;;5068630;28;20550;-70
2022/04/19 01:10:11;;;;;;;43.80;25.13;;;;;;;;;;5068380;28;20056;-70
2022/04/19 01:15:22;;;;;;;53.00;25.90;;;;;;;;;;5062540;28;20047;-70
2022/04/19 01:17:48;;;;;;;46.25;25.95;;;;;;;;;;5059486;28;20053;-72
2022/04/19 01:20:14;;;;;;;47.25;25.45;;;;;;;;;;5060850;28;20048;-71
2022/04/19 01:22:41;;;;;;;43.75;24.13;;;9.90;94.50;;;;;;5067318;28;20412;-70
2022/04/19 01:25:08;;;;;;;48.17;24.15;;;;;;;;;;5075582;28;20103;-71
2022/04/19 01:27:34;;;;;;;45.72;24.20;;;;;;;;;;5052029;28;20056;-71
2022/04/19 01:30:03;;;;;;;38.97;23.40;;;;;;;;;;5066687;28;20481;-70
2022/04/19 01:32:29;;;;;;;46.25;24.15;;;;;;;;;;5070571;28;20405;-71
2022/04/19 01:35:09;;;;;;;43.30;24.10;;;9.80;94.00;;;;;;5053319;28;20033;-71
2022/04/19 01:37:35;;;;;;;44.67;24.25;;;;;;;;;;5070341;28;20045;-71
2022/04/19 01:40:18;;;;;;;54.80;23.98;;;9.80;94.80;;;;;;5066484;28;20040;-71
2022/04/19 01:42:45;;;;;;;45.03;24.83;;;;;;;;;;5070918;28;20127;-71
2022/04/19 01:45:13;;;;;;;46.67;24.83;;;9.80;94.90;;;;;;5059942;28;20047;-71
2022/04/19 01:47:39;;;;;;;49.40;25.02;;;;;;;;;;5069767;28;20036;-71
2022/04/19 01:50:09;;;;;;;43.00;23.63;;;9.50;94.90;;;;;;5073557;28;20116;-71
2022/04/19 01:52:35;;;;;;;46.97;24.77;;;;;;;;;;5060930;28;20041;-71
2022/04/19 01:55:01;;;;;;;40.22;23.05;;;;;;;;;;5056455;28;20393;-71
2022/04/19 01:57:27;;;;;;;50.25;23.77;;;;;;;;;;5077832;28;20118;-71
2022/04/19 01:59:53;;;;;;;48.40;24.70;;;;;;;;;;5055042;28;20044;-71
2022/04/19 02:02:19;;;;;;;42.17;24.40;;;9.40;98.80;;;;;;5061326;28;20044;-71
2022/04/19 02:04:45;;;;;;;41.15;23.45;;;;;;;;;;5056294;28;20044;-71
2022/04/19 02:07:11;;;;;;;47.63;23.95;;;;;;;;;;5056513;28;20187;-71
2022/04/19 02:09:37;;;;;;;43.83;21.95;;;;;;;;;;5055976;28;20370;-71
2022/04/19 02:12:04;;;;;;;39.88;22.73;;;;;;;;;;5056350;28;20041;-71
2022/04/19 02:14:30;;;;;;;48.75;23.17;;;;;;;;;;5064625;28;20048;-71
2022/04/19 02:16:56;;;;;;;44.17;22.33;;;;;;;;;;5059788;28;20049;-71
2022/04/19 02:19:22;;;;;;;42.28;22.85;;;;;;;;;;5071716;28;20493;-71
2022/04/19 02:21:49;;;;;;;45.10;23.92;;;;;;;;;;5070928;28;20037;-71
2022/04/19 02:24:15;;;;;;;42.72;23.10;;;;;;;;;;5071526;28;20063;-71
2022/04/19 02:26:41;;;;;;;42.40;22.33;;;;;;;;;;5069486;28;20098;-71
2022/04/19 02:29:07;;;;;;;46.50;23.48;;;;;;;;;;5054567;28;20037;-71
2022/04/19 02:31:33;;;;;;;38.50;22.55;;;;;;;;;;5063032;28;20079;-71
2022/04/19 02:33:59;;;;;;;43.60;23.88;;;;;;;;;;5055604;28;20040;-71
2022/04/19 02:36:25;;;;;;;41.85;22.70;;;;;;;;;;5054765;28;20045;-71
2022/04/19 02:38:52;;;;;;;41.88;23.02;;;;;;;;;;5067232;28;20124;-71
2022/04/19 02:41:18;;;;;;;39.42;22.80;;;;;;;;;;5054381;28;20041;-71
2022/04/19 02:43:44;;;;;;;43.88;23.75;;;;;;;;;;5056834;28;20070;-71
2022/04/19 02:46:10;;;;;;;48.47;22.80;;;;;;;;;;5038127;28;20048;-71
2022/04/19 02:48:36;;;;;;;43.38;21.23;;;;;;;;;;5067658;28;20036;-71
2022/04/19 02:51:02;;;;;;;40.17;22.60;;;9.10;99.60;;;;;;5063785;28;20036;-71
2022/04/19 02:53:28;;;;;;;41.28;20.85;;;;;;;;;;5057176;28;20048;-71
2022/04/19 02:55:55;;;;;;;40.33;21.40;;;;;;;;;;5055303;28;20040;-71
2022/04/19 02:58:21;;;;;;;46.25;22.85;;;;;;;;;;5057094;28;20099;-71
2022/04/19 03:00:47;;;;;;;43.67;21.65;;;;;;;;;;5058448;28;20037;-71
2022/04/19 03:03:13;;;;;;;39.78;22.30;;;;;;;;;;5062651;28;20044;-71
2022/04/19 03:05:40;;;;;;;43.72;22.15;;;;;;;;;;5084547;28;20048;-71
2022/04/19 03:08:07;;;;;;;43.38;22.27;;;9.00;96.20;;;;;;5067372;28;20041;-71
2022/04/19 03:10:33;;;;;;;36.97;21.23;;;;;;;;;;5070990;28;20032;-71
2022/04/19 03:12:59;;;;;;;38.60;21.05;;;;;;;;;;5059632;28;20485;-71
2022/04/19 03:15:27;;;;;;;42.50;22.48;;;;;;;;;;5072072;28;20060;-71
2022/04/19 03:17:53;;;;;;;37.00;20.75;;;;;;;;;;5065034;28;20057;-71
2022/04/19 03:20:19;;;;;;;37.40;20.77;;;;;;;;;;5054654;28;20079;-71
2022/04/19 03:28:15;;;;;;;45.08;20.50;;;;;;;;;;5063544;28;20060;-71
2022/04/19 03:30:41;;;;;;;41.53;19.95;;;;;;;;;;5054447;28;20102;-71
2022/04/19 03:33:07;;;;;;;40.50;19.33;;;;;;;;;;5057755;28;20036;-71
2022/04/19 03:35:36;;;;;;;47.42;22.77;;;;;;;;;;5053320;28;20131;-71
2022/04/19 03:38:02;;;;;;;46.15;21.25;;;;;;;;;;5058352;28;20119;-71
2022/04/19 03:40:28;;;;;;;40.42;20.80;;;;;;;;;;5070400;28;20495;-71
2022/04/19 03:42:55;;;;;;;40.50;20.73;;;;;;;;;;5063557;28;20385;-71
2022/04/19 03:45:21;;;;;;;39.35;19.95;;;;;;;;;;5068593;28;20048;-71
2022/04/19 03:47:48;;;;;;;41.85;20.63;;;;;;;;;;5062600;28;20074;-71
2022/04/19 03:50:15;;;;;;;39.40;20.45;;;;;;;;;;5069651;28;20492;-71
2022/04/19 03:52:41;;;;;;;40.50;21.45;;;;;;;;;;5063644;28;20033;-71
2022/04/19 03:55:08;;;;;;;45.40;22.38;;;;;;;;;;5052909;28;20091;-71
2022/04/19 03:57:34;;;;;;;45.15;21.83;;;;;;;;;;5059311;28;20032;-71
2022/04/19 04:00:00;;;;;;;45.85;23.17;;;;;;;;;;5057901;28;20044;-71
2022/04/19 04:02:26;;;;;;;48.28;23.00;;;;;;;;;;5061738;28;20036;-71
2022/04/19 04:04:53;;;;;;;51.17;24.00;;;;;;;;;;5070910;28;20051;-71
2022/04/19 04:07:19;;;;;;;47.58;23.45;;;;;;;;;;5050498;28;20059;-71
2022/04/19 04:09:45;;;;;;;48.58;23.08;;;;;;;;;;5057850;28;20431;-71
2022/04/19 04:12:12;;;;;;;53.78;24.38;;;;;;;;;;5054302;28;20029;-71
2022/04/19 04:14:39;;;;;;;50.50;23.15;;;;;;;;;;5055020;28;20033;-71
2022/04/19 04:17:06;;;;;;;43.70;22.02;;;;;;;;;;5068155;28;20053;-70
2022/04/19 04:19:32;;;;;;;51.92;23.10;;;;;;;;;;5036163;28;20076;-71
2022/04/19 04:21:58;;;;;;;55.42;24.05;;;;;;;;;;5052363;28;20547;-71
2022/04/19 04:24:25;;;;;;;56.15;24.65;;;;;;;;;;5064479;28;20044;-68
2022/04/19 04:26:51;;;;;;;58.85;24.45;;;;;;;;;;5070055;28;20052;-71
2022/04/19 04:29:17;;;;;;;53.92;24.17;;;;;;;;;;5068145;28;20043;-71
2022/04/19 04:31:43;;;;;;;50.90;24.60;;;;;;;;;;5070428;28;20032;-71
2022/04/19 04:34:09;;;;;;;53.70;25.20;;;;;;;;;;5052510;28;20028;-71
2022/04/19 04:36:35;;;;;;;51.13;23.83;;;;;;;;;;5063678;28;20178;-71
2022/04/19 04:39:01;;;;;;;57.15;24.25;;;;;;;;;;5057470;28;20491;-71
2022/04/19 04:41:27;;;;;;;57.60;23.80;;;;;;;;;;5052203;28;20493;-71
2022/04/19 04:43:53;;;;;;;55.33;24.65;;;;;;;;;;5059305;28;20033;-70
2022/04/19 04:51:49;;;;;;;55.42;24.83;;;;;;;;;;5064698;28;20127;-71
2022/04/19 04:54:15;;;;;;;61.72;27.08;;;;;;;;;;5060629;28;20389;-71
2022/04/19 04:56:41;;;;;;;57.50;26.05;;;;;;;;;;5060821;28;20115;-72
2022/04/19 04:59:07;;;;;;;58.67;26.15;;;;;;;;;;5061739;28;20045;-70
2022/04/19 05:01:33;;;;;;;58.22;26.60;;;;;;;;;;5069682;28;20481;-70
2022/04/19 05:03:59;;;;;;;67.07;26.50;;;;;;;;;;5058622;28;20392;-70
2022/04/19 05:06:25;;;;;;;62.67;29.02;;;;;;;;;;5069840;28;20111;-70
2022/04/19 05:08:51;;;;;;;63.15;26.08;;;;;;;;;;5063022;28;20428;-70
2022/04/19 05:11:17;;;;;;;57.53;26.65;;;;;;;;;;5063845;28;20033;-70
2022/04/19 05:13:43;;;;;;;63.03;25.92;;;;;;;;;;5060983;28;20119;-70
2022/04/19 05:16:09;;;;;;;55.75;25.17;;;;;;;;;;5076283;28;20476;-71
2022/04/19 05:18:36;;;;;;;70.25;26.90;;;;;;;;;;5065943;28;20041;-70
2022/04/19 05:21:02;;;;;;;54.03;24.80;;;;;;;;;;5076114;28;20488;-70
2022/04/19 05:23:28;;;;;;;54.70;25.85;;;;;;;;;;5060063;28;20122;-70
2022/04/19 05:25:54;;;;;;;60.88;25.90;;;;;;;;;;5076177;28;20032;-69
2022/04/19 05:28:20;;;;;;;66.45;26.77;;;;;;;;;;5059790;28;20346;-69
2022/04/19 05:30:46;;;;;;;50.05;24.02;;;;;;;;;;5074283;28;20405;-69
2022/04/19 05:33:12;;;;;;;60.65;25.15;;;;;;;;;;5061287;28;20037;-70
2022/04/19 05:35:38;;;;;;;51.00;23.83;;;;;;;;;;5073577;28;20144;-70
2022/04/19 05:38:05;;;;;;;48.33;23.23;;;;;;;;;;5067719;28;20112;-70
2022/04/19 05:40:31;;;;;;;56.95;26.13;;;;;;;;;;5069157;28;20044;-69
2022/04/19 05:42:57;;;;;;;62.78;26.88;;;;;;;;;;5070081;28;20548;-70
2022/04/19 05:45:23;;;;;;;59.13;24.33;;;;;;;;;;5076925;28;20506;-70
2022/04/19 05:47:49;;;;;;;67.32;24.23;;;;;;;;;;5067237;28;20040;-70
2022/04/19 05:50:15;;;;;;;57.45;24.42;;;;;;;;;;5077795;28;20032;-70
2022/04/19 05:52:44;;;;;;;53.72;24.95;;;9.00;97.50;;;;;;5070254;28;20036;-71
2022/04/19 05:55:10;;;;;;;52.70;23.42;;;;;;;;;;5060350;28;20460;-71
2022/04/19 05:57:36;;;;;;;51.42;23.15;;;;;;;;;;5056173;28;20133;-71
2022/04/19 06:00:02;;;;;;;51.60;22.58;;;;;;;;;;5057816;28;20052;-72
2022/04/19 06:05:13;;;;;;;47.78;22.08;;;;;;;;;;5060876;28;20476;-71
2022/04/19 06:07:46;;;;;;;52.67;22.13;;;;;;;;;;5067244;28;20037;-72
2022/04/19 06:10:14;;;;;;;45.08;21.60;;;;;;;;;;5062448;28;20119;-72
2022/04/19 06:12:40;;;;;;;44.55;21.83;;;;;;;;;;5064767;28;20102;-72
2022/04/19 06:15:06;;;;;;;47.75;22.30;;;9.40;99.90;;;;;;5069539;28;20033;-72
2022/04/19 06:17:35;;;;;;;52.53;22.70;;;;;;;;;;5066251;28;20206;-71
2022/04/19 06:20:01;;;;;;;45.20;22.52;;;;;;;;;;5051821;28;20072;-71
2022/04/19 06:22:27;;;;;;;44.53;21.10;;;;;;;;;;5061879;28;20101;-71
2022/04/19 06:24:55;;;;;;;47.85;22.90;;;;;;;;;;5066920;28;20041;-71
2022/04/19 06:27:21;;;;;;;49.50;21.02;;;;;;;;;;5064438;28;20056;-72
2022/04/19 06:29:47;;;;;;;53.95;20.50;;;;;;;;;;5070344;28;20476;-71
2022/04/19 06:32:14;;;;;;;47.50;22.30;;;;;;;;;;5068444;28;20033;-72
2022/04/19 06:34:40;;;;;;;43.35;20.02;;;;;;;;;;5067823;28;20066;-72
2022/04/19 06:37:06;;;;;;;49.95;21.38;;;;;;;;;;5064978;28;20063;-72
2022/04/19 06:39:32;;;;;;;49.42;21.45;;;;;;;;;;5066867;28;20087;-72
2022/04/19 06:41:58;;;;;;;41.80;20.13;;;;;;;;;;5074209;28;20051;-72
2022/04/19 06:44:25;;;;;;;45.97;20.70;;;;;;;;;;5059476;28;20040;-72
2022/04/19 06:46:51;;;;;;;40.83;19.95;;;;;;;;;;5065716;28;20053;-72
2022/04/19 06:49:18;;;;;;;39.88;19.65;;;;;;;;;;5059784;28;20041;-72
2022/04/19 06:51:44;;;;;;;38.88;19.70;;;;;;;;;;5060192;28;20120;-72
2022/04/19 06:54:12;;;;;;;51.78;20.88;;;;;;;;;;5068312;28;21345;-72
2022/04/19 06:56:38;;;;;;;48.00;21.13;;;10.70;99.90;;;;;;5058458;28;20404;-72
2022/04/19 06:59:04;;;;;;;45.20;21.00;;;;;;;;;;5055868;28;20037;-71
2022/04/19 07:01:30;;;;;;;44.45;19.73;;;;;;;;;;5060567;28;20059;-71
2022/04/19 07:03:56;;;;;;;39.15;18.92;;;;;;;;;;5059859;28;20520;-72
2022/04/19 07:06:22;;;;;;;38.97;18.80;;;;;;;;;;5053736;28;20595;-71
2022/04/19 07:08:48;;;;;;;39.92;18.48;;;;;;;;;;5063154;28;20044;-71
2022/04/19 07:11:16;;;;;;;39.53;18.40;;;;;;;;;;5070213;28;20173;-71
2022/04/19 07:13:46;;;;;;;40.50;18.20;;;;;;;;;;5046579;28;20045;-71
2022/04/19 07:16:12;;;;;;;41.13;18.50;;;;;;;;;;5053463;28;20049;-72
2022/04/19 07:18:38;;;;;;;42.35;17.90;;;;;;;;;;5056930;28;20045;-72
2022/04/19 07:26:40;;;;;;;43.35;18.35;;;10.60;99.80;;;;;;5087188;28;20512;-72
2022/04/19 07:29:07;;;;;;;36.50;17.55;;;;;;;;;;5053428;28;20045;-72
2022/04/19 07:31:33;;;;;;;39.10;16.95;;;;;;;;;;5053380;28;20041;-72
2022/04/19 07:34:00;;;;;;;40.53;17.00;;;11.20;95.70;;;;;;5070029;28;20110;-72
2022/04/19 07:36:26;;;;;;;33.10;15.90;;;;;;;;;;5053060;28;20041;-72
2022/04/19 07:38:52;;;;;;;38.90;16.35;;;11.70;99.60;;;;;;5053362;28;20045;-72
2022/04/19 07:41:18;;;;;;;35.03;16.05;;;;;;;;;;5053565;28;20056;-73
2022/04/19 07:43:45;;;;;;;38.00;16.20;;;;;;;;;;5053273;28;20055;-71
2022/04/19 07:46:15;;;;;;;37.25;16.17;;;;;;;;;;5053346;28;20114;-72
2022/04/19 07:48:45;;;;;;;37.88;16.27;;;11.70;95.70;;;;;;5053402;28;20053;-72
2022/04/19 07:51:11;;;;;;;35.65;15.48;;;;;;;;;;5054353;28;20099;-71
2022/04/19 07:53:38;;;;;;;39.65;17.15;;;;;;;;;;5053292;28;20516;-72
2022/04/19 07:56:04;;;;;;;37.13;15.05;;;;;;;;;;5052925;28;20037;-72
2022/04/19 07:58:30;;;;;;;41.03;16.92;;;;;;;;;;5054326;28;20523;-72
2022/04/19 08:00:56;;;;;;;39.63;16.38;;;;;;;;;;5052861;28;20048;-72
2022/04/19 08:03:22;;;;;;;37.78;16.15;;;;;;;;;;5054119;28;20450;-72
2022/04/19 08:05:50;;;;;;;37.63;16.10;;;;;;;;;;5052982;28;20048;-72
2022/04/19 08:08:17;;;;;;;36.80;15.93;;;;;;;;;;5052655;28;20044;-72
2022/04/19 08:10:44;;;;;;;34.17;16.55;;;;;;;;;;5052740;28;20125;-72
2022/04/19 08:13:10;;;;;;;32.75;14.85;;;;;;;;;;5054000;28;20036;-71
2022/04/19 08:15:36;;;;;;;37.95;14.73;;;;;;;;;;5052558;28;20119;-72
2022/04/19 08:18:02;;;;;;;34.10;15.43;;;;;;;;;;5052283;28;20210;-71
2022/04/19 08:20:29;;;;;;;33.13;13.65;;;;;;;;;;5052559;28;20045;-72
2022/04/19 08:22:55;;;;;;;38.72;14.73;;;;;;;;;;5052496;28;20171;-72
2022/04/19 08:25:22;;;;;;;39.00;14.50;;;;;;;;;;5086050;28;20052;-73
2022/04/19 08:27:48;;;;;;;34.05;14.50;;;;;;;;;;5052383;28;20557;-73
2022/04/19 08:30:15;;;;;;;28.88;13.68;;;;;;;;;;5052582;28;20091;-73
2022/04/19 08:32:42;;;;;;;32.40;13.77;;;;;;;;;;5052169;28;20095;-73
2022/04/19 08:35:09;;;;;;;31.00;12.95;;;;;;;;;;5052601;28;20048;-73
2022/04/19 08:37:35;;;;;;;26.48;12.73;;;;;;;;;;5052184;28;20463;-72
2022/04/19 08:40:03;;;;;;;30.70;13.13;;;;;;;;;;5052148;28;20051;-73
2022/04/19 08:42:29;;;;;;;24.23;10.75;;;;;;;;;;5052101;28;20037;-72
2022/04/19 08:45:03;;;;;;;23.83;10.23;;;13.10;93.40;;;;;;5052002;28;20055;-72
2022/04/19 08:47:37;;;;;;;27.88;10.20;;;13.30;93.70;;;;;;5051220;28;20129;-72
2022/04/19 08:50:06;;;;;;;23.30;10.77;;;13.40;93.40;;;;;;5051867;28;20501;-73
2022/04/19 08:52:33;;;;;;;30.70;12.45;;;13.50;93.30;;;;;;5068592;28;20508;-73
2022/04/19 08:57:44;;;;;;;21.75;10.30;;;;;;;;;;5085811;28;20047;-73
2022/04/19 09:00:11;;;;;;;20.30;9.85;;;;;;;;;;5051748;28;20041;-73
2022/04/19 09:02:37;;;;;;;22.08;9.32;;;13.40;94.60;;;;;;5051923;28;20076;-73
2022/04/19 09:05:21;;;;;;;21.05;9.40;;;14.00;92.00;;;;;;5052073;28;20087;-73
2022/04/19 09:07:48;;;;;;;23.83;9.98;;;14.20;92.50;;;;;;5053029;28;20041;-73
2022/04/19 09:10:24;;;;;;;19.92;8.68;;;14.30;92.20;;;;;;5051851;28;20116;-73
2022/04/19 09:13:02;;;;;;;16.98;8.70;;;;;;;;;;5053287;28;20036;-73
2022/04/19 09:15:32;;;;;;;20.20;8.75;;;14.40;92.00;;;;;;5068629;28;20143;-73
2022/04/19 09:17:59;;;;;;;19.55;8.82;;;;;;;;;;5051554;28;20412;-72
2022/04/19 09:20:25;;;;;;;18.88;7.60;;;;;;;;;;5068675;28;20114;-73
2022/04/19 09:23:04;;;;;;;23.30;8.65;;;14.70;91.30;;;;;;5068465;28;20131;-73
2022/04/19 09:25:30;;;;;;;22.75;8.40;;;;;;;;;;5051727;28;20397;-73
2022/04/19 09:27:57;;;;;;;22.85;8.27;;;;;;;;;;5068650;28;20382;-73
2022/04/19 09:30:29;;;;;;;15.63;7.35;;;14.70;90.70;;;;;;5053093;28;20120;-73
2022/04/19 09:33:08;;;;;;;17.50;8.48;;;15.30;93.80;;;;;;5053106;28;20041;-73
2022/04/19 09:35:45;;;;;;;18.98;8.07;;;14.60;93.70;;;;;;5051875;28;20103;-73
2022/04/19 09:38:12;;;;;;;25.52;9.02;;;15.00;90.10;;;;;;5051547;28;20041;-73
2022/04/19 09:40:43;;;;;;;23.50;8.90;;;;;;;;;;5035020;28;20444;-73
2022/04/19 09:43:10;;;;;;;19.95;8.65;;;15.40;91.60;;;;;;5051585;28;20374;-73
2022/04/19 09:45:56;;;;;;;19.98;8.75;;;14.50;93.00;;;;;;5051443;28;20053;-73
2022/04/19 09:48:30;;;;;;;21.10;9.05;;;15.60;89.60;;;;;;5051404;28;20067;-73
2022/04/19 09:51:04;;;;;;;19.25;9.15;;;15.00;93.10;;;;;;5052690;28;20570;-73
2022/04/19 09:53:38;;;;;;;16.80;8.60;;;15.60;88.90;;;;;;5051849;28;20092;-73
2022/04/19 09:56:08;;;;;;;18.13;8.43;;;15.60;92.70;;;;;;5052803;28;20044;-73
2022/04/19 09:58:36;;;;;;;17.48;8.32;;;16.40;90.00;;;;;;5052425;28;20037;-73
2022/04/19 10:01:02;;;;;;;15.23;8.00;;;;;;;;;;5055212;28;20481;-72
2022/04/19 10:08:58;;;;;;;9.77;3.65;;;16.10;86.40;;;;;;5088726;28;20090;-73
2022/04/19 10:11:26;;;;;;;6.97;3.88;;;16.30;85.10;;;;;;5054919;28;20397;-73
2022/04/19 10:13:54;;;;;;;10.60;3.75;;;16.00;84.10;;;;;;5054899;28;20049;-73
2022/04/19 10:16:19;;;;;;;7.22;3.97;;;16.60;90.30;;;;;;5054768;28;20061;-73
2022/04/19 10:18:46;;;;;;;10.80;4.13;;;;;;;;;;5054814;28;20048;-73
2022/04/19 10:21:23;;;;;;;9.48;3.70;;;16.20;83.00;;;;;;5055177;28;20047;-73
2022/04/19 10:23:49;;;;;;;6.65;3.35;;;;;;;;;;5056160;28;20698;-73
2022/04/19 10:26:23;;;;;;;10.27;3.42;;;16.70;90.00;;;;;;5071447;28;20041;-73
2022/04/19 10:28:53;;;;;;;5.25;3.22;;;15.70;87.30;;;;;;5055992;28;20044;-73
2022/04/19 10:31:31;;;;;;;10.60;4.13;;;17.00;87.50;;;;;;5054860;28;20048;-73
2022/04/19 10:34:02;;;;;;;10.60;3.78;;;16.20;87.00;;;;;;5054658;28;20124;-73
2022/04/19 10:36:39;;;;;;;8.40;3.50;;;17.30;87.80;;;;;;5054852;28;20111;-73
2022/04/19 10:39:10;;;;;;;5.97;3.10;;;16.80;75.80;;;;;;5054458;28;20095;-73
2022/04/19 10:41:59;;;;;;;11.32;3.70;;;17.10;75.00;;;;;;5054595;28;20047;-73
2022/04/19 10:44:43;;;;;;;11.13;3.45;;;16.80;85.60;;;;;;5055692;28;20045;-73
2022/04/19 10:47:11;;;;;;;6.20;3.30;;;;;;;;;;5054399;28;20524;-73
2022/04/19 10:49:46;;;;;;;5.85;2.80;;;16.70;85.30;;;;;;5054298;28;20036;-73
2022/04/19 10:52:40;;;;;;;9.48;2.78;;;17.80;85.30;;;;;;5071162;28;20048;-73
2022/04/19 10:55:08;;;;;;;7.75;3.20;;;17.80;84.80;;;;;;5053967;28;20082;-73
2022/04/19 10:58:05;;;;;;;8.55;2.85;;;17.40;76.90;;;;;;5054123;28;20059;-73
2022/04/19 11:00:34;;;;;;;9.43;3.30;;;18.20;84.10;;;;;;5053766;28;20136;-73
2022/04/19 11:03:03;;;;;;;9.93;3.28;;;17.70;73.60;;;;;;5054042;28;20087;-73
2022/04/19 11:05:50;;;;;;;6.50;3.53;;;17.60;75.70;;;;;;5070902;28;20052;-73
2022/04/19 11:08:24;;;;;;;7.55;3.90;;;18.10;79.00;;;;;;5053794;28;20053;-73
2022/04/19 11:10:56;;;;;;;10.52;3.53;;;18.50;77.00;;;;;;5053419;28;20044;-73
2022/04/19 11:13:34;;;;;;;8.15;3.80;;;17.70;79.30;;;;;;5054011;28;20087;-73
2022/04/19 11:16:07;;;;;;;9.13;3.35;;;18.20;83.40;;;;;;5053600;28;20033;-73
2022/04/19 11:18:41;;;;;;;9.88;4.07;;;18.60;83.30;;;;;;5054047;28;20053;-73
2022/04/19 11:21:11;;;;;;;8.48;3.67;;;18.20;83.10;;;;;;5053656;28;20481;-73
2022/04/19 11:23:48;;;;;;;9.85;3.75;;;17.80;72.60;;;;;;5053598;28;20049;-73
2022/04/19 11:26:26;;;;;;;18.40;4.43;;;18.90;82.70;;;;;;5053804;28;20072;-73
2022/04/19 11:29:10;;;;;;;8.25;4.30;;;18.80;83.20;;;;;;5054685;28;20366;-73
2022/04/19 11:31:56;;;;;;;8.63;4.45;;;18.50;74.40;;;;;;5037018;28;20037;-73
2022/04/19 11:34:22;;;;;;;9.90;4.15;;;;;;;;;;5049591;28;20055;-73
2022/04/19 11:36:48;;;;;;;10.23;3.97;;;;;;;;;;5053249;28;20503;-73
2022/04/19 11:48:05;;;;;;;7.68;3.97;;;18.90;83.00;;;;;;5086669;28;20056;-73
2022/04/19 11:50:31;;;;;;;8.18;3.85;;;19.10;82.30;;;;;;5052264;28;20053;-73
2022/04/19 11:53:00;;;;;;;11.65;3.85;;;18.30;81.40;;;;;;5054301;28;20040;-73
2022/04/19 11:55:27;;;;;;;7.13;3.50;;;18.60;72.70;;;;;;5054145;28;20114;-73
2022/04/19 11:58:07;;;;;;;9.27;4.07;;;19.30;81.30;;;;;;5052959;28;20562;-73
2022/04/19 12:00:33;;;;;;;7.22;3.75;;;18.60;72.30;;;;;;5053119;28;20132;-73
2022/04/19 12:03:02;;;;;;;8.57;4.07;;;18.30;80.70;;;;;;5052843;28;20128;-73
2022/04/19 12:05:30;;;;;;;10.25;4.47;;;19.40;81.70;;;;;;5053288;28;20403;-73
2022/04/19 12:07:57;;;;;;;6.78;4.47;;;18.90;81.20;;;;;;5052885;28;20115;-73
2022/04/19 12:10:23;;;;;;;9.25;4.70;;;18.60;80.80;;;;;;5053086;28;20037;-73
2022/04/19 12:12:50;;;;;;;14.35;4.80;;;19.70;81.60;;;;;;5052881;28;20444;-72
2022/04/19 12:15:41;;;;;;;10.95;5.18;;;18.90;80.90;;;;;;5052941;28;20048;-74
2022/04/19 12:18:07;;;;;;;8.93;5.30;;;18.80;80.30;;;;;;5052554;28;20131;-72
2022/04/19 12:20:43;;;;;;;13.65;5.85;;;19.40;77.50;;;;;;5069475;28;20041;-72
2022/04/19 12:23:20;;;;;;;9.15;4.97;;;19.00;80.00;;;;;;5051633;28;20071;-73
2022/04/19 12:25:58;;;;;;;10.45;5.65;;;19.40;70.60;;;;;;5052573;28;20049;-72
2022/04/19 12:28:52;;;;;;;9.88;5.30;;;21.90;74.10;;;;;;5052411;28;20175;-73
2022/04/19 12:31:55;;;;;;;9.80;5.80;;;19.60;71.80;;;;;;5052753;28;20052;-72
2022/04/19 12:34:31;;;;;;;9.52;5.32;;;19.80;71.80;;;;;;5042125;28;20230;-72
2022/04/19 12:37:05;;;;;;;15.65;5.75;;;20.10;80.40;;;;;;5052729;28;20064;-72
2022/04/19 12:39:31;;;;;;;13.10;5.82;;;;;;;;;;5052274;28;20186;-72
2022/04/19 12:42:11;;;;;;;10.32;5.00;;;19.90;72.00;;;;;;5052295;28;20045;-72
2022/04/19 12:44:38;;;;;;;7.95;4.53;;;20.70;80.40;;;;;;5053445;28;20040;-74
2022/04/19 12:47:12;;;;;;;10.02;4.95;;;20.10;69.60;;;;;;5052389;28;20041;-72
2022/04/19 12:49:46;;;;;;;17.70;5.85;;;19.80;79.30;;;;;;5052515;28;20062;-72
2022/04/19 12:52:12;;;;;;;13.48;6.25;;;20.50;79.70;;;;;;5052223;28;20044;-72
2022/04/19 12:54:46;;;;;;;11.13;5.25;;;20.50;70.90;;;;;;5052009;28;20158;-72
2022/04/19 12:57:17;;;;;;;13.68;5.65;;;;;;;;;;5052049;28;20040;-73
2022/04/19 12:59:44;;;;;;;11.65;5.28;;;;;;;;;;5052157;28;20059;-73
2022/04/19 13:02:13;;;;;;;13.75;5.50;;;20.40;78.00;;;;;;5051876;28;20508;-72
2022/04/19 13:04:39;;;;;;;11.70;5.40;;;20.80;78.30;;;;;;5052075;28;20051;-73
2022/04/19 13:12:33;;;;;;;13.35;6.35;;;;;;;;;;5085705;28;20103;-72
2022/04/19 13:15:04;;;;;;;14.82;6.55;;;20.80;77.90;;;;;;5052127;28;20052;-73
2022/04/19 13:17:41;;;;;;;10.65;5.70;;;19.80;78.30;;;;;;5035165;28;20114;-72
2022/04/19 13:20:08;;;;;;;12.10;7.07;;;20.80;69.50;;;;;;5052095;28;20052;-72
2022/04/19 13:22:36;;;;;;;13.40;7.50;;;20.60;70.00;;;;;;5052146;28;20052;-72
2022/04/19 13:25:03;;;;;;;21.02;7.47;;;;;;;;;;5051918;28;20512;-72
2022/04/19 13:27:33;;;;;;;15.77;7.03;;;21.30;77.90;;;;;;5051900;28;20037;-73
2022/04/19 13:30:00;;;;;;;12.98;7.38;;;21.10;70.50;;;;;;5051820;28;20045;-73
2022/04/19 13:32:25;;;;;;;13.20;7.50;;;21.30;76.80;;;;;;5051836;28;20058;-72
2022/04/19 13:34:51;;;;;;;13.48;7.78;;;20.40;77.30;;;;;;5055848;28;20045;-72
2022/04/19 13:38:23;;;;;;;15.30;6.78;;;20.70;77.70;;;;;;5055910;28;20167;-72
2022/04/19 13:40:03;;;;;;;14.10;6.30;;;21.60;77.70;;;;;;5089378;28;20053;-72
2022/04/19 13:42:29;;;;;;;10.77;5.65;;;21.50;76.70;;;;;;5057058;28;20044;-71
2022/04/19 13:44:55;;;;;;;11.50;5.63;;;;;;;;;;5055585;28;20120;-71
2022/04/19 13:47:21;;;;;;;9.05;4.95;;;20.50;76.40;;;;;;5088871;28;20094;-71
2022/04/19 13:49:47;;;;;;;9.32;4.80;;;;;;;;;;5055584;28;20045;-71
2022/04/19 13:52:13;;;;;;;10.02;5.60;;;20.50;76.40;;;;;;5055538;28;20052;-71
2022/04/19 13:54:39;;;;;;;7.88;4.55;;;;;;;;;;5055432;28;20041;-71
2022/04/19 13:57:05;;;;;;;13.68;4.88;;;20.90;76.20;;;;;;5055668;28;20060;-72
2022/04/19 13:59:31;;;;;;;13.50;4.88;;;21.40;76.10;;;;;;5072140;28;20094;-72
2022/04/19 14:02:00;;;;;;;9.05;4.50;;;21.10;75.60;;;;;;5055481;28;20123;-72
2022/04/19 14:04:26;;;;;;;11.45;4.25;;;;;;;;;;5055636;28;20055;-71
2022/04/19 14:06:52;;;;;;;10.93;4.50;;;22.00;70.60;;;;;;5055269;28;20063;-72
2022/04/19 14:09:19;;;;;;;8.25;4.95;;;21.90;75.20;;;;;;5055309;28;20045;-71
2022/04/19 14:11:45;;;;;;;15.35;5.28;;;21.10;75.00;;;;;;5055315;28;20080;-72
2022/04/19 14:14:11;;;;;;;8.80;4.43;;;21.50;75.40;;;;;;5055098;28;20158;-72
2022/04/19 14:16:37;;;;;;;9.27;4.53;;;22.10;75.10;;;;;;5054981;28;20061;-72
2022/04/19 14:19:04;;;;;;;10.07;4.85;;;22.00;75.20;;;;;;5055035;28;20489;-72
2022/04/19 14:21:30;;;;;;;10.23;5.40;;;;;;;;;;5055241;28;20072;-72
2022/04/19 14:23:56;;;;;;;9.48;5.28;;;21.90;74.90;;;;;;5054943;28;20500;-72
2022/04/19 14:26:22;;;;;;;13.02;5.60;;;21.20;74.10;;;;;;5055083;28;20055;-71
2022/04/19 14:34:17;;;;;;;10.93;6.15;;;22.40;75.60;;;;;;5055948;28;20064;-71
2022/04/19 14:36:42;;;;;;;13.80;6.10;;;22.10;74.80;;;;;;5054964;28;20049;-71